createdAt,value
2019-03-24T00:01:45.913Z,7.60
2019-03-24T00:04:21.241Z,7.60
2019-03-24T00:06:53.748Z,7.40
2019-03-24T00:09:37.059Z,7.20
2019-03-24T00:12:09.801Z,7.00
2019-03-24T00:14:45.233Z,6.90
2019-03-24T00:17:17.899Z,6.90
2019-03-24T00:19:53.289Z,6.90
2019-03-24T00:22:26.105Z,6.90
2019-03-24T00:25:06.456Z,6.90
2019-03-24T00:27:38.990Z,6.80
2019-03-24T00:30:15.453Z,6.60
2019-03-24T00:32:48.150Z,6.50
2019-03-24T00:35:29.518Z,6.40
2019-03-24T00:38:02.950Z,6.40
2019-03-24T00:40:35.818Z,6.40
2019-03-24T00:43:08.483Z,6.30
2019-03-24T00:45:44.066Z,6.40
2019-03-24T00:48:16.586Z,6.40
2019-03-24T00:50:56.750Z,6.50
2019-03-24T00:53:29.210Z,6.60
2019-03-24T00:56:13.588Z,6.60
2019-03-24T00:58:46.028Z,6.60
2019-03-24T01:01:21.693Z,6.50
2019-03-24T01:03:55.413Z,6.50
2019-03-24T01:06:30.998Z,6.50
2019-03-24T01:09:04.273Z,6.40
2019-03-24T01:11:39.808Z,6.40
2019-03-24T01:14:12.526Z,6.30
2019-03-24T01:16:52.206Z,6.00
2019-03-24T01:19:24.829Z,5.80
2019-03-24T01:21:57.643Z,5.60
2019-03-24T01:24:30.231Z,5.50
2019-03-24T01:27:06.199Z,5.50
2019-03-24T01:29:38.714Z,5.30
2019-03-24T01:32:23.651Z,5.30
2019-03-24T01:34:56.310Z,5.20
2019-03-24T01:37:29.042Z,5.20
2019-03-24T01:40:01.661Z,5.20
2019-03-24T01:42:52.155Z,5.10
2019-03-24T01:45:24.690Z,5.00
2019-03-24T01:47:57.163Z,5.00
2019-03-24T01:50:29.701Z,5.00
2019-03-24T01:53:02.303Z,5.00
2019-03-24T01:55:34.841Z,5.10
2019-03-24T01:58:16.548Z,5.10
2019-03-24T02:00:49.396Z,5.10
2019-03-24T02:03:25.005Z,5.10
2019-03-24T02:05:57.803Z,5.20
2019-03-24T02:08:31.324Z,5.20
2019-03-24T02:11:04.154Z,5.10
2019-03-24T02:13:43.921Z,5.00
2019-03-24T02:16:16.517Z,4.90
2019-03-24T02:18:49.031Z,4.80
2019-03-24T02:21:21.795Z,4.80
2019-03-24T02:24:04.523Z,4.70
2019-03-24T02:26:37.008Z,4.70
2019-03-24T02:29:18.541Z,4.70
2019-03-24T02:31:50.929Z,4.70
2019-03-24T02:34:25.635Z,4.70
2019-03-24T02:36:58.716Z,4.70
2019-03-24T02:39:31.421Z,4.70
2019-03-24T02:42:04.524Z,4.60
2019-03-24T02:44:45.041Z,4.40
2019-03-24T02:47:17.623Z,4.40
2019-03-24T02:49:59.184Z,4.40
2019-03-24T02:52:31.423Z,4.40
2019-03-24T02:55:03.954Z,4.30
2019-03-24T02:57:36.462Z,4.30
2019-03-24T03:00:17.701Z,4.30
2019-03-24T03:02:50.573Z,4.30
2019-03-24T03:05:23.167Z,4.20
2019-03-24T03:07:55.574Z,4.20
2019-03-24T03:10:38.914Z,4.10
2019-03-24T03:13:11.886Z,4.00
2019-03-24T03:15:47.168Z,4.00
2019-03-24T03:18:19.746Z,3.90
2019-03-24T03:20:55.105Z,3.90
2019-03-24T03:23:27.677Z,3.90
2019-03-24T03:26:08.111Z,4.00
2019-03-24T03:28:41.094Z,3.90
2019-03-24T03:31:20.083Z,4.00
2019-03-24T03:33:53.417Z,3.90
2019-03-24T03:36:28.945Z,3.90
2019-03-24T03:39:01.387Z,3.80
2019-03-24T03:41:37.194Z,3.80
2019-03-24T03:44:09.626Z,3.80
2019-03-24T03:46:52.375Z,3.70
2019-03-24T03:49:19.341Z,3.70
2019-03-24T03:51:57.103Z,3.60
2019-03-24T03:54:29.535Z,3.60
2019-03-24T03:57:09.903Z,3.50
2019-03-24T03:59:42.390Z,3.50
2019-03-24T04:02:22.303Z,3.30
2019-03-24T04:04:54.845Z,3.20
2019-03-24T04:07:27.334Z,3.10
2019-03-24T04:09:59.739Z,3.10
2019-03-24T04:12:41.448Z,3.10
2019-03-24T04:15:14.137Z,3.10
2019-03-24T04:17:46.695Z,3.10
2019-03-24T04:20:19.546Z,3.00
2019-03-24T04:23:04.520Z,3.00
2019-03-24T04:25:36.955Z,3.00
2019-03-24T04:28:16.818Z,3.00
2019-03-24T04:30:49.267Z,2.90
2019-03-24T04:33:21.729Z,2.90
2019-03-24T04:35:54.254Z,2.90
2019-03-24T04:38:30.557Z,2.80
2019-03-24T04:41:03.100Z,2.70
2019-03-24T04:43:45.638Z,2.70
2019-03-24T04:46:18.070Z,2.70
2019-03-24T04:48:50.482Z,2.80
2019-03-24T04:51:22.853Z,2.80
2019-03-24T04:54:02.501Z,2.80
2019-03-24T04:56:36.078Z,2.90
2019-03-24T04:59:13.045Z,2.90
2019-03-24T05:01:45.613Z,2.90
2019-03-24T05:04:20.821Z,2.90
2019-03-24T05:06:54.063Z,2.90
2019-03-24T05:09:34.000Z,2.90
2019-03-24T05:12:06.442Z,2.90
2019-03-24T05:14:46.008Z,2.90
2019-03-24T05:17:26.712Z,2.90
2019-03-24T05:19:52.577Z,2.90
2019-03-24T05:22:24.771Z,2.80
2019-03-24T05:25:06.556Z,2.80
2019-03-24T05:27:39.076Z,2.80
2019-03-24T05:30:11.561Z,2.80
2019-03-24T05:32:43.997Z,2.90
2019-03-24T05:35:22.541Z,2.90
2019-03-24T05:37:55.276Z,2.90
2019-03-24T05:40:37.542Z,2.90
2019-03-24T05:43:10.003Z,3.10
2019-03-24T05:45:47.007Z,3.40
2019-03-24T05:48:19.640Z,3.80
2019-03-24T05:50:55.619Z,4.30
2019-03-24T05:53:28.061Z,4.70
2019-03-24T05:56:04.592Z,5.10
2019-03-24T05:58:37.019Z,5.50
2019-03-24T06:01:14.666Z,5.70
2019-03-24T06:03:47.269Z,5.90
2019-03-24T06:06:30.169Z,6.10
2019-03-24T06:09:02.631Z,6.30
2019-03-24T06:11:38.315Z,6.50
2019-03-24T06:14:11.680Z,6.70
2019-03-24T06:16:48.131Z,6.80
2019-03-24T06:19:21.249Z,7.00
2019-03-24T06:22:01.113Z,7.40
2019-03-24T06:24:33.639Z,7.70
2019-03-24T06:27:09.137Z,8.20
2019-03-24T06:29:41.501Z,8.60
2019-03-24T06:32:21.312Z,8.80
2019-03-24T06:34:53.792Z,9.00
2019-03-24T06:37:33.790Z,9.20
2019-03-24T06:40:06.550Z,9.40
2019-03-24T06:42:41.873Z,9.70
2019-03-24T06:45:14.527Z,10.20
2019-03-24T06:47:57.555Z,10.40
2019-03-24T06:50:24.729Z,10.60
2019-03-24T06:52:57.221Z,11.00
2019-03-24T06:55:29.870Z,11.20
2019-03-24T06:58:06.172Z,11.30
2019-03-24T07:00:38.690Z,11.30
2019-03-24T07:03:29.960Z,11.60
2019-03-24T07:06:02.688Z,11.80
2019-03-24T07:08:35.985Z,12.00
2019-03-24T07:11:13.481Z,12.30
2019-03-24T07:13:42.792Z,12.80
2019-03-24T07:16:15.448Z,13.10
2019-03-24T07:18:51.984Z,13.70
2019-03-24T07:21:24.750Z,14.30
2019-03-24T07:24:06.582Z,14.60
2019-03-24T07:26:39.884Z,15.00
2019-03-24T07:29:12.693Z,15.50
2019-03-24T07:31:45.484Z,15.70
2019-03-24T07:34:22.422Z,15.80
2019-03-24T07:36:55.768Z,16.20
2019-03-24T07:39:38.013Z,16.10
2019-03-24T07:42:11.019Z,16.10
2019-03-24T07:44:43.965Z,16.60
2019-03-24T07:47:17.294Z,16.90
2019-03-24T07:52:29.265Z,17.20
2019-03-24T07:55:08.819Z,17.70
2019-03-24T07:57:42.279Z,17.70
2019-03-24T08:00:38.344Z,18.10
2019-03-24T08:03:11.832Z,18.60
2019-03-24T08:05:45.100Z,18.90
2019-03-24T08:08:17.688Z,19.40
2019-03-24T08:10:50.235Z,19.40
2019-03-24T08:13:23.686Z,19.70
2019-03-24T08:15:56.679Z,20.20
2019-03-24T08:18:30.399Z,20.40
2019-03-24T08:21:03.341Z,20.80
2019-03-24T08:23:35.981Z,21.30
2019-03-24T08:26:08.684Z,21.80
2019-03-24T08:28:42.171Z,22.20
2019-03-24T08:31:15.215Z,22.60
2019-03-24T08:33:47.937Z,22.70
2019-03-24T08:36:21.397Z,23.00
2019-03-24T08:38:54.701Z,23.40
2019-03-24T08:41:28.843Z,23.30
2019-03-24T08:44:01.794Z,23.70
2019-03-24T08:46:34.851Z,23.50
2019-03-24T08:49:07.429Z,23.80
2019-03-24T08:51:40.295Z,24.10
2019-03-24T08:54:14.018Z,24.40
2019-03-24T08:56:48.074Z,24.60
2019-03-24T08:59:21.107Z,24.80
2019-03-24T09:01:53.632Z,25.10
2019-03-24T09:04:26.550Z,25.30
2019-03-24T09:07:00.286Z,25.60
2019-03-24T09:09:33.387Z,25.70
2019-03-24T09:12:07.077Z,25.60
2019-03-24T09:14:39.891Z,26.00
2019-03-24T09:17:12.807Z,26.30
2019-03-24T09:19:48.966Z,26.40
2019-03-24T09:22:22.098Z,25.90
2019-03-24T09:25:02.142Z,25.80
2019-03-24T09:27:34.662Z,26.30
2019-03-24T09:30:09.807Z,26.60
2019-03-24T09:32:42.785Z,26.40
2019-03-24T09:35:16.557Z,26.50
2019-03-24T09:37:49.432Z,26.50
2019-03-24T09:40:29.708Z,26.60
2019-03-24T09:43:03.922Z,27.10
2019-03-24T09:45:37.492Z,27.20
2019-03-24T09:48:10.821Z,27.40
2019-03-24T09:50:45.329Z,27.70
2019-03-24T09:53:18.116Z,28.10
2019-03-24T09:55:52.192Z,28.40
2019-03-24T09:58:25.307Z,28.90
2019-03-24T10:00:57.866Z,29.20
2019-03-24T10:03:31.860Z,28.90
2019-03-24T10:06:04.718Z,29.70
2019-03-24T10:08:46.769Z,28.80
2019-03-24T10:11:12.475Z,28.90
2019-03-24T10:13:45.090Z,29.30
2019-03-24T10:16:17.814Z,29.10
2019-03-24T10:18:50.653Z,28.80
2019-03-24T10:21:23.644Z,29.00
2019-03-24T10:23:56.882Z,29.20
2019-03-24T10:26:29.897Z,29.50
2019-03-24T10:29:03.048Z,29.70
2019-03-24T10:31:35.885Z,29.70
2019-03-24T10:34:11.371Z,29.50
2019-03-24T10:36:45.064Z,29.60
2019-03-24T10:39:21.988Z,29.50
2019-03-24T10:41:55.021Z,29.90
2019-03-24T10:44:30.970Z,29.60
2019-03-24T10:47:04.662Z,29.40
2019-03-24T10:49:41.429Z,28.90
2019-03-24T10:52:14.502Z,29.60
2019-03-24T10:54:51.623Z,29.70
2019-03-24T10:57:25.226Z,30.30
2019-03-24T11:00:04.355Z,30.50
2019-03-24T11:02:37.633Z,30.80
2019-03-24T11:05:12.766Z,30.30
2019-03-24T11:07:46.381Z,29.60
2019-03-24T11:10:21.912Z,30.80
2019-03-24T11:12:55.473Z,31.30
2019-03-24T11:15:35.794Z,31.30
2019-03-24T11:18:09.695Z,31.10
2019-03-24T11:20:45.326Z,31.20
2019-03-24T11:23:18.063Z,31.20
2019-03-24T11:25:53.924Z,31.70
2019-03-24T11:28:26.868Z,31.60
2019-03-24T11:31:03.605Z,31.60
2019-03-24T11:33:37.912Z,31.90
2019-03-24T11:36:15.138Z,31.20
2019-03-24T11:38:49.632Z,31.60
2019-03-24T11:41:24.128Z,31.40
2019-03-24T11:43:56.903Z,31.40
2019-03-24T11:46:29.530Z,31.10
2019-03-24T11:49:02.821Z,30.40
2019-03-24T11:51:36.081Z,30.80
2019-03-24T11:54:09.214Z,30.80
2019-03-24T11:56:42.503Z,31.50
2019-03-24T11:59:15.460Z,31.70
2019-03-24T12:01:48.314Z,30.00
2019-03-24T12:04:21.514Z,30.30
2019-03-24T12:06:54.361Z,29.70
2019-03-24T12:09:28.379Z,30.10
2019-03-24T12:12:01.170Z,30.70
2019-03-24T12:14:33.962Z,31.00
2019-03-24T12:17:06.865Z,31.40
2019-03-24T12:19:39.949Z,31.50
2019-03-24T12:22:14.490Z,30.00
2019-03-24T12:24:47.061Z,30.30
2019-03-24T12:27:19.844Z,31.60
2019-03-24T12:29:52.452Z,31.40
2019-03-24T12:32:25.239Z,32.10
2019-03-24T12:34:58.764Z,32.30
2019-03-24T12:37:32.927Z,32.20
2019-03-24T12:40:06.346Z,32.80
2019-03-24T12:42:39.119Z,33.10
2019-03-24T12:45:12.857Z,32.50
2019-03-24T12:47:46.285Z,32.90
2019-03-24T12:50:30.661Z,32.40
2019-03-24T12:52:53.754Z,32.30
2019-03-24T12:55:26.918Z,30.80
2019-03-24T12:58:00.328Z,30.50
2019-03-24T13:00:41.589Z,30.20
2019-03-24T13:03:14.537Z,30.70
2019-03-24T13:05:47.388Z,29.70
2019-03-24T13:08:21.374Z,29.50
2019-03-24T13:10:55.012Z,30.60
2019-03-24T13:13:27.909Z,29.60
2019-03-24T13:16:00.350Z,29.50
2019-03-24T13:18:32.964Z,29.90
2019-03-24T13:21:05.798Z,29.70
2019-03-24T13:23:42.766Z,29.70
2019-03-24T13:26:16.231Z,30.10
2019-03-24T13:28:49.147Z,30.10
2019-03-24T13:31:21.908Z,30.70
2019-03-24T13:33:54.710Z,31.00
2019-03-24T13:36:27.604Z,31.30
2019-03-24T13:39:00.928Z,31.90
2019-03-24T13:41:33.522Z,31.80
2019-03-24T13:44:09.281Z,32.00
2019-03-24T13:46:42.188Z,32.30
2019-03-24T13:49:19.064Z,32.20
2019-03-24T13:51:51.940Z,31.70
2019-03-24T13:54:28.861Z,31.10
2019-03-24T13:57:02.018Z,31.30
2019-03-24T13:59:38.782Z,30.90
2019-03-24T14:02:11.938Z,30.70
2019-03-24T14:04:50.691Z,31.00
2019-03-24T14:07:23.314Z,30.90
2019-03-24T14:09:59.895Z,31.10
2019-03-24T14:12:33.055Z,31.50
2019-03-24T14:15:14.909Z,31.40
2019-03-24T14:17:49.202Z,31.40
2019-03-24T14:20:22.300Z,30.80
2019-03-24T14:22:55.561Z,29.60
2019-03-24T14:25:30.944Z,30.10
2019-03-24T14:28:03.466Z,30.20
2019-03-24T14:30:54.752Z,29.80
2019-03-24T14:33:27.527Z,29.40
2019-03-24T14:36:00.372Z,29.10
2019-03-24T14:38:33.307Z,29.50
2019-03-24T14:41:07.147Z,30.20
2019-03-24T14:43:39.803Z,30.70
2019-03-24T14:46:12.388Z,31.00
2019-03-24T14:48:46.082Z,28.10
2019-03-24T14:51:21.224Z,27.50
2019-03-24T14:53:57.167Z,27.40
2019-03-24T14:56:38.453Z,27.10
2019-03-24T14:59:10.976Z,26.60
2019-03-24T15:01:44.032Z,27.40
2019-03-24T15:04:19.834Z,26.90
2019-03-24T15:06:58.387Z,26.70
2019-03-24T15:09:31.068Z,27.00
2019-03-24T15:12:04.361Z,26.40
2019-03-24T15:14:39.125Z,25.60
2019-03-24T15:17:14.599Z,25.10
2019-03-24T15:19:47.372Z,25.20
2019-03-24T15:22:31.014Z,24.90
2019-03-24T15:25:05.244Z,24.50
2019-03-24T15:27:38.233Z,24.30
2019-03-24T15:30:12.631Z,24.10
2019-03-24T15:32:45.763Z,24.30
2019-03-24T15:35:20.599Z,24.30
2019-03-24T15:38:07.814Z,24.40
2019-03-24T15:40:30.638Z,24.10
2019-03-24T15:43:07.503Z,24.20
2019-03-24T15:45:41.385Z,23.90
2019-03-24T15:48:14.535Z,23.80
2019-03-24T15:50:47.321Z,23.50
2019-03-24T15:53:32.876Z,23.60
2019-03-24T15:56:06.428Z,23.20
2019-03-24T15:58:42.399Z,23.20
2019-03-24T16:01:15.003Z,23.00
2019-03-24T16:03:51.092Z,22.90
2019-03-24T16:06:24.858Z,23.00
2019-03-24T16:09:04.347Z,22.80
2019-03-24T16:11:37.128Z,22.70
2019-03-24T16:14:09.777Z,22.40
2019-03-24T16:16:45.459Z,22.30
2019-03-24T16:19:29.033Z,22.20
2019-03-24T16:22:02.967Z,22.20
2019-03-24T16:24:36.007Z,22.00
2019-03-24T16:27:10.014Z,21.70
2019-03-24T16:29:43.098Z,21.70
2019-03-24T16:32:16.143Z,21.80
2019-03-24T16:34:56.133Z,21.70
2019-03-24T16:37:29.942Z,21.60
2019-03-24T16:40:06.830Z,21.30
2019-03-24T16:42:39.854Z,21.20
2019-03-24T16:45:12.821Z,21.20
2019-03-24T16:47:47.063Z,21.00
2019-03-24T16:50:24.229Z,20.90
2019-03-24T16:52:57.376Z,20.90
2019-03-24T16:55:30.409Z,20.60
2019-03-24T16:58:03.368Z,20.50
2019-03-24T17:00:42.510Z,20.30
2019-03-24T17:03:15.852Z,20.20
2019-03-24T17:05:51.809Z,20.20
2019-03-24T17:08:24.957Z,20.10
2019-03-24T17:11:01.333Z,20.00
2019-03-24T17:13:34.910Z,19.80
2019-03-24T17:16:10.779Z,19.60
2019-03-24T17:18:43.654Z,19.40
2019-03-24T17:21:35.054Z,19.30
2019-03-24T17:24:07.725Z,19.20
2019-03-24T17:26:40.606Z,19.10
2019-03-24T17:29:13.510Z,19.10
2019-03-24T17:31:46.516Z,19.20
2019-03-24T17:34:20.136Z,19.10
2019-03-24T17:36:53.136Z,19.00
2019-03-24T17:39:27.251Z,19.00
2019-03-24T17:42:06.030Z,19.00
2019-03-24T17:44:39.834Z,18.90
2019-03-24T17:47:13.741Z,18.90
2019-03-24T17:49:47.508Z,18.90
2019-03-24T17:52:20.513Z,18.80
2019-03-24T17:54:54.254Z,18.70
2019-03-24T17:57:27.623Z,18.60
2019-03-24T18:00:00.575Z,18.50
2019-03-24T18:02:33.661Z,18.50
2019-03-24T18:05:07.262Z,18.40
2019-03-24T18:07:40.338Z,18.40
2019-03-24T18:10:13.822Z,18.40
2019-03-24T18:12:46.833Z,18.40
2019-03-24T18:15:21.601Z,18.40
2019-03-24T18:17:55.017Z,18.40
2019-03-24T18:20:34.204Z,18.40
2019-03-24T18:23:07.070Z,18.30
2019-03-24T18:25:40.722Z,18.20
2019-03-24T18:28:16.099Z,18.20
2019-03-24T18:30:55.898Z,18.00
2019-03-24T18:33:29.017Z,17.90
2019-03-24T18:36:02.808Z,17.80
2019-03-24T18:38:36.306Z,17.70
2019-03-24T18:41:09.679Z,17.70
2019-03-24T18:43:42.696Z,17.70
2019-03-24T18:46:15.505Z,17.60
2019-03-24T18:48:48.317Z,17.40
2019-03-24T18:51:22.245Z,17.30
2019-03-24T18:53:56.062Z,17.00
2019-03-24T18:56:28.640Z,16.90
2019-03-24T18:59:02.666Z,16.70
2019-03-24T19:01:36.024Z,16.70
2019-03-24T19:04:08.807Z,16.60
2019-03-24T19:06:41.875Z,16.50
2019-03-24T19:09:15.244Z,16.40
2019-03-24T19:11:48.857Z,16.20
2019-03-24T19:14:21.621Z,16.20
2019-03-24T19:16:55.226Z,15.90
2019-03-24T19:19:28.007Z,15.70
2019-03-24T19:22:00.933Z,15.70
2019-03-24T19:24:34.326Z,15.60
2019-03-24T19:27:06.869Z,15.50
2019-03-24T19:29:39.533Z,15.40
2019-03-24T19:32:13.058Z,15.30
2019-03-24T19:34:46.360Z,15.00
2019-03-24T19:37:18.804Z,14.90
2019-03-24T19:39:52.026Z,14.70
2019-03-24T19:42:25.571Z,14.40
2019-03-24T19:44:58.764Z,14.30
2019-03-24T19:47:31.796Z,14.20
2019-03-24T19:50:04.943Z,14.10
2019-03-24T19:52:44.559Z,14.00
2019-03-24T19:55:13.798Z,13.90
2019-03-24T19:57:47.485Z,13.80
2019-03-24T20:00:20.548Z,13.70
2019-03-24T20:02:54.237Z,13.50
2019-03-24T20:05:27.624Z,13.50
2019-03-24T20:08:00.987Z,13.40
2019-03-24T20:10:35.098Z,13.30
2019-03-24T20:13:08.417Z,13.10
2019-03-24T20:15:41.515Z,12.90
2019-03-24T20:18:15.356Z,12.90
2019-03-24T20:20:49.036Z,12.80
2019-03-24T20:23:22.496Z,12.80
2019-03-24T20:25:56.086Z,12.80
2019-03-24T20:28:37.465Z,12.80
2019-03-24T20:31:10.965Z,12.80
2019-03-24T20:33:48.725Z,12.70
2019-03-24T20:36:22.102Z,12.60
2019-03-24T20:38:59.898Z,12.40
2019-03-24T20:41:33.221Z,12.30
2019-03-24T20:44:11.243Z,12.30
2019-03-24T20:46:50.351Z,12.20
2019-03-24T20:49:21.060Z,12.20
2019-03-24T20:51:54.281Z,12.10
2019-03-24T20:54:31.190Z,12.10
2019-03-24T20:57:04.613Z,11.90
2019-03-24T20:59:38.973Z,11.80
2019-03-24T21:02:11.784Z,11.80
2019-03-24T21:04:52.303Z,11.70
2019-03-24T21:07:25.224Z,11.70
2019-03-24T21:09:58.597Z,11.60
2019-03-24T21:12:31.632Z,11.60
2019-03-24T21:15:11.279Z,11.50
2019-03-24T21:17:44.207Z,11.40
2019-03-24T21:20:23.524Z,11.20
2019-03-24T21:22:57.183Z,11.10
2019-03-24T21:25:33.470Z,11.00
2019-03-24T21:28:06.580Z,10.90
2019-03-24T21:30:43.788Z,10.90
2019-03-24T21:33:18.404Z,10.80
2019-03-24T21:35:51.257Z,10.70
2019-03-24T21:38:24.579Z,10.60
2019-03-24T21:40:58.023Z,10.60
2019-03-24T21:43:31.539Z,10.50
2019-03-24T21:46:13.953Z,10.50
2019-03-24T21:48:48.347Z,10.50
2019-03-24T21:51:21.911Z,10.40
2019-03-24T21:53:56.033Z,10.40
2019-03-24T21:56:35.857Z,10.30
2019-03-24T21:59:09.059Z,10.20
2019-03-24T22:01:45.167Z,10.10
2019-03-24T22:04:20.782Z,10.10
2019-03-24T22:06:53.758Z,10.00
2019-03-24T22:09:26.773Z,10.00
2019-03-24T22:12:06.083Z,10.00
2019-03-24T22:14:38.742Z,10.00
2019-03-24T22:17:15.090Z,9.90
2019-03-24T22:19:47.803Z,9.80
2019-03-24T22:22:21.041Z,9.60
2019-03-24T22:24:53.782Z,9.60
2019-03-24T22:27:38.011Z,9.50
2019-03-24T22:30:11.132Z,9.50
2019-03-24T22:32:47.158Z,9.40
2019-03-24T22:35:20.473Z,9.20
2019-03-24T22:37:56.247Z,9.20
2019-03-24T22:40:29.936Z,9.10
2019-03-24T22:43:04.311Z,9.00
2019-03-24T22:45:36.972Z,9.00
2019-03-24T22:48:10.038Z,9.00
2019-03-24T22:50:43.148Z,9.00
2019-03-24T22:53:16.293Z,9.00
2019-03-24T22:55:48.921Z,9.00
2019-03-24T22:58:21.724Z,9.00
2019-03-24T23:00:57.171Z,9.00
2019-03-24T23:03:30.350Z,9.00
2019-03-24T23:06:02.992Z,8.90
2019-03-24T23:08:35.945Z,8.90
2019-03-24T23:11:10.149Z,8.90
2019-03-24T23:13:42.711Z,8.70
2019-03-24T23:16:15.448Z,8.70
2019-03-24T23:18:48.484Z,8.60
2019-03-24T23:21:21.299Z,8.50
2019-03-24T23:23:54.291Z,8.50
2019-03-24T23:26:28.474Z,8.50
2019-03-24T23:29:02.249Z,8.40
2019-03-24T23:31:34.862Z,8.40
2019-03-24T23:34:08.586Z,8.40
2019-03-24T23:36:41.348Z,8.40
2019-03-24T23:39:16.709Z,8.30
2019-03-24T23:41:49.509Z,8.30
2019-03-24T23:44:24.068Z,8.20
2019-03-24T23:46:56.835Z,8.20
2019-03-24T23:49:29.549Z,8.20
2019-03-24T23:52:02.272Z,8.20
2019-03-24T23:54:35.159Z,8.20
2019-03-24T23:57:07.719Z,8.20
2019-03-24T23:59:40.313Z,8.00
